createdAt,value
2017-12-13T00:00:20.664Z,32.60
2017-12-13T00:01:20.682Z,34.60
2017-12-13T00:02:20.680Z,34.20
2017-12-13T00:03:20.692Z,34.20
2017-12-13T00:04:20.704Z,37.80
2017-12-13T00:05:20.713Z,33.70
2017-12-13T00:06:20.723Z,34.00
2017-12-13T00:07:20.787Z,33.10
2017-12-13T00:08:20.744Z,34.00
2017-12-13T00:09:20.756Z,36.10
2017-12-13T00:10:20.781Z,34.20
2017-12-13T00:11:20.777Z,33.00
2017-12-13T00:12:20.786Z,32.80
2017-12-13T00:13:20.798Z,33.60
2017-12-13T00:14:20.807Z,33.50
2017-12-13T00:15:20.819Z,33.40
2017-12-13T00:16:20.828Z,35.40
2017-12-13T00:17:20.837Z,33.20
2017-12-13T00:18:20.849Z,30.40
2017-12-13T00:19:20.866Z,32.60
2017-12-13T00:20:20.871Z,31.80
2017-12-13T00:21:20.882Z,31.60
2017-12-13T00:22:20.891Z,29.70
2017-12-13T00:23:20.906Z,30.70
2017-12-13T00:24:20.922Z,29.90
2017-12-13T00:25:20.924Z,32.30
2017-12-13T00:26:20.936Z,32.40
2017-12-13T00:27:20.944Z,30.50
2017-12-13T00:28:20.959Z,29.20
2017-12-13T00:29:20.967Z,30.80
2017-12-13T00:30:20.975Z,29.10
2017-12-13T00:31:20.985Z,31.60
2017-12-13T00:32:20.998Z,35.60
2017-12-13T00:33:21.007Z,32.40
2017-12-13T00:34:21.018Z,29.00
2017-12-13T00:35:21.034Z,31.90
2017-12-13T00:36:21.038Z,35.20
2017-12-13T00:37:21.051Z,32.40
2017-12-13T00:38:21.060Z,32.10
2017-12-13T00:39:21.077Z,32.00
2017-12-13T00:40:21.081Z,33.20
2017-12-13T00:41:21.100Z,32.90
2017-12-13T00:42:21.104Z,29.60
2017-12-13T00:43:21.112Z,28.90
2017-12-13T00:44:21.125Z,32.20
2017-12-13T00:45:21.131Z,35.10
2017-12-13T00:46:21.145Z,31.20
2017-12-13T00:47:21.158Z,33.00
2017-12-13T00:48:21.165Z,30.80
2017-12-13T00:49:21.175Z,29.90
2017-12-13T00:50:21.186Z,31.10
2017-12-13T00:51:21.206Z,33.40
2017-12-13T00:52:21.207Z,31.20
2017-12-13T00:53:21.229Z,31.70
2017-12-13T00:54:21.231Z,28.10
2017-12-13T00:55:21.242Z,33.00
2017-12-13T00:56:21.251Z,32.90
2017-12-13T00:57:21.260Z,31.50
2017-12-13T00:58:21.271Z,32.00
2017-12-13T00:59:21.280Z,30.50
2017-12-13T01:00:21.297Z,32.50
2017-12-13T01:01:21.300Z,30.40
2017-12-13T01:02:21.313Z,30.70
2017-12-13T01:03:21.321Z,30.10
2017-12-13T01:04:21.372Z,28.90
2017-12-13T01:05:21.343Z,33.00
2017-12-13T01:06:21.356Z,33.20
2017-12-13T01:07:21.363Z,27.40
2017-12-13T01:08:21.373Z,29.40
2017-12-13T01:09:21.384Z,28.30
2017-12-13T01:10:21.394Z,30.20
2017-12-13T01:11:21.403Z,28.90
2017-12-13T01:12:21.416Z,29.40
2017-12-13T01:13:21.425Z,27.60
2017-12-13T01:14:21.435Z,30.50
2017-12-13T01:15:21.450Z,26.90
2017-12-13T01:16:21.455Z,30.30
2017-12-13T01:17:21.469Z,30.40
2017-12-13T01:18:21.476Z,26.30
2017-12-13T01:19:21.486Z,30.40
2017-12-13T01:20:21.499Z,28.30
2017-12-13T01:21:21.507Z,27.80
2017-12-13T01:22:21.519Z,25.90
2017-12-13T01:23:21.533Z,25.40
2017-12-13T01:24:21.538Z,25.30
2017-12-13T01:25:21.548Z,27.40
2017-12-13T01:26:21.561Z,24.50
2017-12-13T01:27:21.568Z,26.60
2017-12-13T01:28:21.579Z,28.20
2017-12-13T01:29:21.589Z,24.80
2017-12-13T01:30:21.599Z,23.60
2017-12-13T01:31:21.610Z,24.20
2017-12-13T01:32:21.621Z,24.60
2017-12-13T01:33:21.630Z,24.20
2017-12-13T01:34:21.640Z,21.40
2017-12-13T01:35:21.651Z,21.30
2017-12-13T01:36:21.662Z,24.30
2017-12-13T01:37:21.672Z,21.90
2017-12-13T01:38:21.684Z,22.10
2017-12-13T01:39:21.694Z,25.40
2017-12-13T01:40:21.701Z,23.10
2017-12-13T01:41:21.713Z,22.20
2017-12-13T01:42:21.722Z,21.50
2017-12-13T01:43:21.732Z,20.90
2017-12-13T01:44:21.745Z,21.10
2017-12-13T01:45:21.756Z,24.00
2017-12-13T01:46:21.761Z,20.80
2017-12-13T01:47:21.776Z,19.90
2017-12-13T01:48:21.787Z,20.20
2017-12-13T01:49:21.795Z,20.70
2017-12-13T01:50:21.806Z,21.00
2017-12-13T01:51:21.813Z,20.20
2017-12-13T01:52:21.826Z,19.40
2017-12-13T01:53:21.836Z,18.10
2017-12-13T01:54:21.843Z,19.60
2017-12-13T01:55:21.854Z,18.00
2017-12-13T01:56:21.866Z,16.70
2017-12-13T01:57:21.875Z,19.90
2017-12-13T01:58:21.886Z,18.50
2017-12-13T01:59:21.896Z,18.70
2017-12-13T02:00:21.906Z,17.40
2017-12-13T02:01:21.915Z,17.80
2017-12-13T02:02:21.924Z,17.30
2017-12-13T02:03:21.934Z,18.60
2017-12-13T02:04:21.949Z,18.10
2017-12-13T02:05:21.983Z,14.70
2017-12-13T02:06:21.966Z,15.50
2017-12-13T02:07:21.975Z,16.50
2017-12-13T02:08:21.987Z,17.30
2017-12-13T02:09:21.996Z,14.80
2017-12-13T02:10:22.006Z,15.00
2017-12-13T02:11:22.015Z,17.70
2017-12-13T02:12:22.029Z,16.50
2017-12-13T02:13:22.035Z,16.20
2017-12-13T02:14:22.047Z,17.00
2017-12-13T02:15:22.055Z,17.00
2017-12-13T02:16:22.066Z,16.60
2017-12-13T02:17:22.080Z,18.60
2017-12-13T02:18:22.090Z,16.20
2017-12-13T02:19:22.096Z,14.40
2017-12-13T02:20:22.107Z,15.50
2017-12-13T02:21:22.124Z,15.30
2017-12-13T02:22:22.126Z,15.30
2017-12-13T02:23:22.145Z,15.30
2017-12-13T02:24:22.151Z,16.10
2017-12-13T02:25:22.158Z,16.70
2017-12-13T02:26:22.167Z,16.70
2017-12-13T02:27:22.177Z,18.90
2017-12-13T02:28:22.189Z,14.40
2017-12-13T02:29:22.194Z,17.70
2017-12-13T02:30:22.214Z,15.50
2017-12-13T02:31:22.236Z,17.60
2017-12-13T02:32:22.227Z,17.30
2017-12-13T02:33:22.237Z,14.40
2017-12-13T02:34:22.248Z,17.10
2017-12-13T02:35:22.257Z,17.70
2017-12-13T02:36:22.267Z,20.40
2017-12-13T02:37:22.278Z,15.20
2017-12-13T02:38:22.287Z,14.60
2017-12-13T02:39:22.309Z,15.80
2017-12-13T02:40:22.306Z,16.30
2017-12-13T02:41:22.317Z,15.30
2017-12-13T02:42:22.325Z,14.20
2017-12-13T02:43:22.338Z,14.40
2017-12-13T02:44:22.345Z,15.30
2017-12-13T02:45:22.354Z,15.40
2017-12-13T02:46:22.364Z,14.50
2017-12-13T02:47:22.477Z,14.20
2017-12-13T02:48:22.486Z,14.70
2017-12-13T02:49:22.397Z,14.70
2017-12-13T02:50:22.409Z,15.90
2017-12-13T02:51:22.418Z,16.80
2017-12-13T02:52:22.427Z,15.80
2017-12-13T02:53:22.438Z,14.70
2017-12-13T02:54:22.446Z,18.10
2017-12-13T02:55:22.454Z,15.50
2017-12-13T02:56:22.468Z,14.10
2017-12-13T02:57:22.477Z,14.00
2017-12-13T02:58:22.485Z,15.60
2017-12-13T02:59:22.497Z,15.10
2017-12-13T03:00:22.506Z,15.40
2017-12-13T03:01:22.517Z,17.30
2017-12-13T03:02:22.528Z,16.20
2017-12-13T03:03:22.536Z,13.40
2017-12-13T03:04:22.546Z,14.40
2017-12-13T03:05:22.556Z,15.10
2017-12-13T03:06:22.564Z,14.70
2017-12-13T03:07:22.580Z,14.10
2017-12-13T03:08:22.588Z,13.30
2017-12-13T03:09:22.595Z,15.50
2017-12-13T03:10:22.604Z,15.40
2017-12-13T03:11:22.613Z,13.80
2017-12-13T03:12:22.625Z,13.80
2017-12-13T03:13:22.635Z,14.10
2017-12-13T03:14:22.646Z,14.70
2017-12-13T03:15:22.654Z,15.10
2017-12-13T03:16:22.665Z,14.60
2017-12-13T03:17:22.676Z,15.00
2017-12-13T03:18:22.685Z,13.80
2017-12-13T03:19:22.694Z,14.50
2017-12-13T03:20:22.705Z,13.90
2017-12-13T03:21:22.726Z,13.30
2017-12-13T03:22:22.728Z,13.30
2017-12-13T03:23:22.738Z,16.20
2017-12-13T03:24:22.748Z,13.80
2017-12-13T03:25:22.756Z,13.80
2017-12-13T03:26:22.768Z,12.60
2017-12-13T03:27:22.779Z,16.20
2017-12-13T03:28:22.785Z,13.90
2017-12-13T03:29:22.796Z,15.50
2017-12-13T03:30:22.809Z,15.30
2017-12-13T03:31:22.816Z,15.80
2017-12-13T03:32:22.826Z,12.40
2017-12-13T03:33:22.839Z,13.90
2017-12-13T03:34:22.845Z,14.30
2017-12-13T03:35:22.855Z,14.40
2017-12-13T03:36:22.868Z,13.20
2017-12-13T03:37:22.878Z,15.30
2017-12-13T03:38:22.884Z,17.00
2017-12-13T03:39:22.894Z,13.90
2017-12-13T03:40:22.904Z,11.50
2017-12-13T03:41:22.914Z,15.00
2017-12-13T03:42:22.926Z,13.80
2017-12-13T03:43:22.933Z,16.40
2017-12-13T03:44:22.943Z,13.50
2017-12-13T03:45:22.956Z,13.30
2017-12-13T03:46:22.964Z,13.10
2017-12-13T03:47:22.976Z,13.80
2017-12-13T03:48:22.984Z,12.60
2017-12-13T03:49:22.994Z,12.90
2017-12-13T03:50:23.005Z,12.80
2017-12-13T03:51:23.054Z,11.10
2017-12-13T03:52:23.025Z,13.60
2017-12-13T03:53:23.034Z,10.20
2017-12-13T03:54:23.145Z,12.10
2017-12-13T03:55:23.057Z,11.80
2017-12-13T03:56:23.063Z,13.10
2017-12-13T03:57:23.073Z,11.20
2017-12-13T03:58:23.091Z,11.30
2017-12-13T03:59:23.095Z,12.20
2017-12-13T04:00:23.105Z,11.30
2017-12-13T04:01:23.114Z,13.50
2017-12-13T04:02:23.126Z,11.10
2017-12-13T04:03:23.134Z,11.50
2017-12-13T04:04:23.144Z,12.70
2017-12-13T04:05:23.153Z,10.60
2017-12-13T04:06:23.163Z,13.40
2017-12-13T04:07:23.173Z,10.60
2017-12-13T04:08:23.185Z,11.30
2017-12-13T04:09:23.195Z,11.70
2017-12-13T04:10:23.202Z,13.70
2017-12-13T04:11:23.213Z,12.20
2017-12-13T04:12:23.224Z,12.60
2017-12-13T04:13:23.233Z,11.20
2017-12-13T04:14:23.242Z,10.60
2017-12-13T04:15:23.252Z,12.00
2017-12-13T04:16:23.263Z,10.20
2017-12-13T04:17:23.273Z,10.90
2017-12-13T04:18:23.286Z,10.10
2017-12-13T04:19:23.293Z,12.50
2017-12-13T04:20:23.301Z,10.80
2017-12-13T04:21:23.313Z,12.20
2017-12-13T04:22:23.326Z,9.80
2017-12-13T04:23:23.332Z,9.70
2017-12-13T04:24:23.345Z,12.30
2017-12-13T04:25:23.354Z,13.30
2017-12-13T04:26:23.360Z,11.60
2017-12-13T04:27:23.370Z,11.20
2017-12-13T04:28:23.382Z,11.10
2017-12-13T04:29:23.391Z,12.70
2017-12-13T04:30:23.406Z,10.90
2017-12-13T04:31:23.413Z,11.10
2017-12-13T04:32:23.440Z,11.30
2017-12-13T04:33:23.432Z,13.00
2017-12-13T04:34:23.445Z,12.40
2017-12-13T04:35:23.451Z,9.80
2017-12-13T04:36:23.462Z,11.30
2017-12-13T04:37:23.472Z,12.40
2017-12-13T04:38:23.482Z,12.20
2017-12-13T04:39:23.489Z,11.70
2017-12-13T04:40:23.503Z,11.90
2017-12-13T04:41:23.509Z,11.30
2017-12-13T04:42:23.519Z,11.60
2017-12-13T04:43:23.530Z,12.20
2017-12-13T04:44:23.540Z,11.50
2017-12-13T04:45:23.553Z,11.10
2017-12-13T04:46:23.560Z,10.30
2017-12-13T04:47:23.570Z,12.10
2017-12-13T04:48:23.581Z,12.50
2017-12-13T04:49:23.592Z,12.40
2017-12-13T04:50:23.603Z,11.20
2017-12-13T04:51:23.612Z,11.30
2017-12-13T04:52:23.623Z,10.60
2017-12-13T04:53:23.633Z,9.90
2017-12-13T04:54:23.641Z,8.80
2017-12-13T04:55:23.650Z,9.60
2017-12-13T04:56:23.661Z,10.70
2017-12-13T04:57:23.675Z,9.80
2017-12-13T04:58:23.684Z,10.00
2017-12-13T04:59:23.696Z,10.40
2017-12-13T05:00:23.707Z,9.90
2017-12-13T05:01:23.716Z,9.00
2017-12-13T05:02:23.725Z,9.00
2017-12-13T05:03:23.737Z,12.00
2017-12-13T05:04:23.745Z,11.40
2017-12-13T05:05:23.768Z,12.40
2017-12-13T05:06:23.768Z,9.50
2017-12-13T05:07:23.775Z,8.40
2017-12-13T05:08:23.782Z,9.60
2017-12-13T05:09:23.792Z,9.40
2017-12-13T05:10:23.802Z,8.70
2017-12-13T05:11:23.811Z,11.90
2017-12-13T05:12:23.825Z,8.80
2017-12-13T05:13:23.836Z,9.60
2017-12-13T05:14:23.844Z,9.00
2017-12-13T05:15:23.855Z,10.80
2017-12-13T05:16:23.896Z,10.00
2017-12-13T05:17:23.876Z,8.70
2017-12-13T05:18:23.885Z,9.20
2017-12-13T05:19:23.896Z,11.50
2017-12-13T05:20:23.907Z,8.30
2017-12-13T05:21:23.916Z,11.40
2017-12-13T05:22:23.924Z,10.10
2017-12-13T05:23:23.936Z,10.10
2017-12-13T05:24:23.945Z,9.90
2017-12-13T05:25:23.955Z,9.80
2017-12-13T05:26:23.964Z,7.90
2017-12-13T05:27:23.978Z,9.50
2017-12-13T05:28:23.990Z,7.20
2017-12-13T05:29:24.001Z,8.00
2017-12-13T05:30:24.005Z,9.30
2017-12-13T05:31:24.023Z,9.60
2017-12-13T05:32:24.028Z,8.00
2017-12-13T05:33:24.037Z,11.00
2017-12-13T05:34:24.046Z,10.20
2017-12-13T05:35:24.059Z,9.30
2017-12-13T05:36:24.066Z,11.40
2017-12-13T05:37:24.076Z,11.20
2017-12-13T05:38:24.093Z,9.80
2017-12-13T05:39:24.093Z,9.60
2017-12-13T05:40:24.104Z,9.70
2017-12-13T05:41:24.114Z,10.50
2017-12-13T05:42:24.123Z,8.40
2017-12-13T05:43:24.133Z,9.00
2017-12-13T05:44:24.143Z,9.30
2017-12-13T05:45:24.154Z,9.30
2017-12-13T05:46:24.167Z,8.80
2017-12-13T05:47:24.178Z,10.10
2017-12-13T05:48:24.183Z,8.50
2017-12-13T05:49:24.193Z,9.30
2017-12-13T05:50:24.203Z,8.90
2017-12-13T05:51:24.214Z,9.20
2017-12-13T05:52:24.227Z,8.80
2017-12-13T05:53:24.236Z,9.40
2017-12-13T05:54:24.243Z,8.90
2017-12-13T05:55:24.262Z,7.40
2017-12-13T05:56:24.365Z,8.00
2017-12-13T05:57:24.275Z,8.30
2017-12-13T05:58:24.291Z,9.80
2017-12-13T05:59:24.298Z,8.20
2017-12-13T06:00:24.305Z,7.20
2017-12-13T06:01:24.328Z,8.30
2017-12-13T06:02:24.327Z,8.00
2017-12-13T06:03:24.337Z,9.30
2017-12-13T06:04:24.347Z,7.80
2017-12-13T06:05:24.355Z,8.70
2017-12-13T06:06:24.379Z,7.70
2017-12-13T06:07:24.377Z,8.50
2017-12-13T06:08:24.387Z,7.90
2017-12-13T06:09:24.395Z,7.30
2017-12-13T06:10:24.403Z,8.80
2017-12-13T06:11:24.413Z,8.40
2017-12-13T06:12:24.428Z,8.70
2017-12-13T06:13:24.434Z,8.00
2017-12-13T06:14:24.446Z,8.20
2017-12-13T06:15:24.455Z,7.60
2017-12-13T06:16:24.465Z,9.80
2017-12-13T06:17:24.477Z,7.40
2017-12-13T06:18:24.485Z,8.10
2017-12-13T06:19:24.495Z,10.30
2017-12-13T06:20:24.511Z,10.00
2017-12-13T06:21:24.517Z,8.20
2017-12-13T06:22:24.529Z,7.20
2017-12-13T06:23:24.537Z,8.60
2017-12-13T06:24:24.550Z,8.50
2017-12-13T06:25:24.560Z,7.90
2017-12-13T06:26:24.567Z,8.60
2017-12-13T06:27:24.588Z,9.10
2017-12-13T06:28:24.598Z,7.80
2017-12-13T06:29:24.619Z,11.00
2017-12-13T06:30:24.608Z,7.60
2017-12-13T06:31:24.617Z,7.80
2017-12-13T06:32:24.642Z,10.10
2017-12-13T06:33:24.636Z,9.50
2017-12-13T06:34:24.645Z,9.10
2017-12-13T06:35:24.659Z,11.90
2017-12-13T06:36:24.675Z,8.80
2017-12-13T06:37:24.676Z,9.30
2017-12-13T06:38:24.702Z,13.70
2017-12-13T06:39:24.695Z,9.30
2017-12-13T06:40:24.707Z,10.80
2017-12-13T06:41:24.718Z,8.90
2017-12-13T06:42:24.731Z,11.60
2017-12-13T06:43:24.738Z,9.60
2017-12-13T06:44:24.748Z,10.10
2017-12-13T06:45:24.757Z,9.00
2017-12-13T06:46:24.767Z,11.90
2017-12-13T06:47:24.780Z,10.30
2017-12-13T06:48:24.787Z,11.80
2017-12-13T06:49:24.806Z,10.20
2017-12-13T06:50:24.805Z,9.50
2017-12-13T06:51:24.816Z,13.40
2017-12-13T06:52:24.827Z,10.40
2017-12-13T06:53:24.831Z,9.70
2017-12-13T06:54:24.843Z,9.60
2017-12-13T06:55:24.849Z,8.80
2017-12-13T06:56:24.859Z,8.20
2017-12-13T06:57:24.872Z,11.50
2017-12-13T06:58:24.879Z,9.40
2017-12-13T06:59:24.894Z,8.20
2017-12-13T07:00:24.907Z,9.60
2017-12-13T07:01:24.912Z,8.10
2017-12-13T07:02:24.918Z,9.50
2017-12-13T07:03:24.941Z,8.80
2017-12-13T07:04:24.948Z,11.30
2017-12-13T07:05:24.951Z,8.80
2017-12-13T07:06:24.964Z,10.30
2017-12-13T07:07:24.981Z,8.90
2017-12-13T07:08:24.984Z,10.30
2017-12-13T07:09:24.992Z,9.80
2017-12-13T07:10:25.002Z,11.90
2017-12-13T07:11:25.016Z,8.60
2017-12-13T07:12:25.022Z,9.80
2017-12-13T07:13:25.034Z,8.40
2017-12-13T07:14:25.043Z,7.60
2017-12-13T07:15:25.050Z,7.90
2017-12-13T07:16:25.060Z,9.80
2017-12-13T07:17:25.073Z,10.90
2017-12-13T07:18:25.086Z,8.10
2017-12-13T07:19:25.093Z,9.30
2017-12-13T07:20:25.109Z,10.20
2017-12-13T07:21:25.113Z,11.00
2017-12-13T07:22:25.123Z,7.60
2017-12-13T07:23:25.135Z,9.30
2017-12-13T07:24:25.145Z,7.70
2017-12-13T07:25:25.157Z,10.20
2017-12-13T07:26:25.169Z,9.90
2017-12-13T07:27:25.178Z,10.70
2017-12-13T07:28:25.186Z,9.40
2017-12-13T07:29:25.197Z,8.90
2017-12-13T07:30:25.210Z,9.40
2017-12-13T07:31:25.220Z,9.50
2017-12-13T07:32:25.231Z,10.00
2017-12-13T07:33:25.238Z,7.80
2017-12-13T07:34:25.255Z,10.40
2017-12-13T07:35:25.259Z,10.30
2017-12-13T07:36:25.268Z,10.90
2017-12-13T07:37:25.280Z,9.50
2017-12-13T07:38:25.295Z,8.30
2017-12-13T07:39:25.305Z,12.60
2017-12-13T07:40:25.312Z,10.90
2017-12-13T07:41:25.324Z,10.90
2017-12-13T07:42:25.332Z,12.00
2017-12-13T07:43:25.341Z,9.10
2017-12-13T07:44:25.356Z,10.30
2017-12-13T07:45:25.364Z,9.10
2017-12-13T07:46:25.373Z,8.70
2017-12-13T07:47:25.386Z,9.20
2017-12-13T07:48:25.399Z,9.90
2017-12-13T07:49:25.406Z,9.20
2017-12-13T07:50:25.423Z,11.80
2017-12-13T07:51:25.428Z,9.60
2017-12-13T07:52:25.449Z,12.10
2017-12-13T07:53:25.460Z,6.90
2017-12-13T07:54:25.457Z,11.40
2017-12-13T07:55:25.474Z,7.60
2017-12-13T07:56:25.481Z,7.20
2017-12-13T07:57:25.494Z,10.20
2017-12-13T07:58:25.502Z,9.30
2017-12-13T07:59:25.515Z,6.70
2017-12-13T08:00:25.530Z,8.50
2017-12-13T08:01:25.546Z,10.60
2017-12-13T08:02:25.545Z,9.90
2017-12-13T08:03:25.562Z,6.80
2017-12-13T08:04:25.568Z,6.90
2017-12-13T08:05:25.578Z,8.80
2017-12-13T08:06:25.588Z,7.40
2017-12-13T08:07:25.603Z,7.00
2017-12-13T08:08:25.619Z,8.20
2017-12-13T08:09:25.624Z,8.60
2017-12-13T08:10:25.631Z,10.40
2017-12-13T08:11:25.646Z,7.20
2017-12-13T08:12:25.653Z,11.00
2017-12-13T08:13:25.672Z,9.20
2017-12-13T08:14:25.676Z,9.10
2017-12-13T08:15:25.696Z,8.30
2017-12-13T08:16:25.701Z,6.60
2017-12-13T08:17:25.712Z,8.80
2017-12-13T08:18:25.720Z,8.90
2017-12-13T08:19:25.731Z,7.60
2017-12-13T08:20:25.747Z,8.00
2017-12-13T08:21:25.753Z,7.30
2017-12-13T08:22:25.764Z,6.30
2017-12-13T08:23:25.839Z,7.50
2017-12-13T08:24:25.792Z,7.60
2017-12-13T08:25:25.813Z,9.80
2017-12-13T08:26:25.811Z,7.90
2017-12-13T08:27:25.821Z,10.90
2017-12-13T08:28:25.836Z,8.60
2017-12-13T08:29:25.845Z,7.90
2017-12-13T08:30:25.850Z,9.40
2017-12-13T08:31:25.877Z,7.70
2017-12-13T08:32:25.873Z,9.80
2017-12-13T08:33:25.888Z,7.50
2017-12-13T08:34:25.894Z,7.70
2017-12-13T08:35:25.924Z,9.70
2017-12-13T08:36:25.917Z,6.80
2017-12-13T08:37:25.943Z,8.50
2017-12-13T08:38:25.951Z,7.30
2017-12-13T08:39:25.951Z,8.20
2017-12-13T08:40:25.961Z,7.00
2017-12-13T08:41:25.974Z,8.40
2017-12-13T08:42:25.983Z,8.50
2017-12-13T08:43:25.994Z,7.30
2017-12-13T08:44:26.013Z,9.10
2017-12-13T08:45:26.017Z,10.20
2017-12-13T08:46:26.027Z,8.60
2017-12-13T08:47:26.076Z,7.20
2017-12-13T08:48:26.051Z,7.00
2017-12-13T08:49:26.062Z,7.60
2017-12-13T08:50:26.075Z,12.60
2017-12-13T08:51:26.086Z,11.10
2017-12-13T08:52:26.144Z,7.60
2017-12-13T08:53:26.207Z,9.70
2017-12-13T08:54:26.125Z,7.70
2017-12-13T08:55:26.132Z,9.30
2017-12-13T08:56:26.141Z,12.30
2017-12-13T08:57:26.152Z,16.30
2017-12-13T08:58:26.173Z,19.10
2017-12-13T08:59:26.177Z,18.10
2017-12-13T09:00:26.186Z,16.80
2017-12-13T09:01:26.205Z,14.40
2017-12-13T09:02:26.209Z,11.50
2017-12-13T09:03:26.220Z,11.70
2017-12-13T09:04:26.239Z,8.40
2017-12-13T09:05:26.242Z,10.10
2017-12-13T09:06:26.251Z,12.20
2017-12-13T09:07:26.265Z,8.70
2017-12-13T09:08:26.275Z,10.60
2017-12-13T09:09:26.287Z,6.90
2017-12-13T09:10:26.302Z,8.00
2017-12-13T09:11:26.318Z,6.90
2017-12-13T09:12:26.321Z,7.90
2017-12-13T09:13:26.355Z,7.00
2017-12-13T09:14:26.348Z,5.20
2017-12-13T09:15:26.356Z,7.60
2017-12-13T09:16:26.370Z,7.50
2017-12-13T09:17:26.381Z,8.10
2017-12-13T09:18:26.395Z,9.20
2017-12-13T09:19:26.405Z,7.10
2017-12-13T09:20:26.412Z,8.10
2017-12-13T09:21:26.431Z,8.30
2017-12-13T09:22:26.436Z,4.90
2017-12-13T09:23:26.447Z,6.40
2017-12-13T09:24:26.467Z,9.40
2017-12-13T09:25:26.470Z,8.70
2017-12-13T09:26:26.485Z,5.60
2017-12-13T09:27:26.494Z,5.90
2017-12-13T09:28:26.507Z,7.20
2017-12-13T09:29:26.521Z,5.70
2017-12-13T09:30:26.544Z,5.10
2017-12-13T09:31:26.541Z,7.40
2017-12-13T09:32:26.554Z,6.70
2017-12-13T09:33:26.561Z,5.50
2017-12-13T09:34:26.576Z,6.80
2017-12-13T09:35:26.590Z,6.40
2017-12-13T09:36:26.599Z,6.80
2017-12-13T09:37:27.227Z,5.60
2017-12-13T09:38:26.630Z,8.30
2017-12-13T09:39:26.630Z,7.10
2017-12-13T09:40:26.651Z,5.50
2017-12-13T09:41:26.657Z,5.60
2017-12-13T09:42:26.862Z,6.30
2017-12-13T09:43:26.677Z,9.20
2017-12-13T09:44:26.687Z,8.90
2017-12-13T09:45:26.700Z,7.70
2017-12-13T09:46:26.775Z,7.40
2017-12-13T09:47:26.725Z,8.90
2017-12-13T09:48:26.731Z,8.10
2017-12-13T09:49:26.874Z,7.70
2017-12-13T09:50:26.757Z,7.80
2017-12-13T09:51:26.766Z,13.00
2017-12-13T09:52:26.780Z,9.30
2017-12-13T09:53:26.789Z,10.60
2017-12-13T09:54:26.804Z,9.40
2017-12-13T09:55:26.917Z,6.20
2017-12-13T09:56:26.832Z,7.10
2017-12-13T09:57:26.838Z,8.60
2017-12-13T09:58:26.846Z,10.00
2017-12-13T09:59:26.855Z,7.90
2017-12-13T10:00:26.867Z,6.20
2017-12-13T10:01:26.880Z,10.00
2017-12-13T10:02:26.896Z,9.30
2017-12-13T10:03:26.907Z,6.60
2017-12-13T10:04:26.938Z,8.60
2017-12-13T10:05:26.938Z,6.30
2017-12-13T10:06:26.939Z,7.90
2017-12-13T10:07:26.950Z,6.60
2017-12-13T10:08:26.965Z,6.00
2017-12-13T10:09:26.977Z,7.10
2017-12-13T10:10:26.986Z,6.90
2017-12-13T10:11:26.998Z,8.80
2017-12-13T10:12:27.010Z,6.30
2017-12-13T10:13:27.033Z,8.50
2017-12-13T10:14:27.034Z,5.60
2017-12-13T10:15:27.046Z,10.00
2017-12-13T10:16:27.121Z,8.10
2017-12-13T10:17:27.067Z,11.20
2017-12-13T10:18:27.075Z,8.00
2017-12-13T10:19:27.092Z,6.70
2017-12-13T10:20:27.109Z,16.00
2017-12-13T10:21:27.110Z,11.20
2017-12-13T10:22:27.127Z,6.70
2017-12-13T10:23:27.132Z,16.90
2017-12-13T10:24:27.143Z,9.80
2017-12-13T10:25:27.159Z,11.50
2017-12-13T10:26:27.167Z,7.00
2017-12-13T10:27:27.187Z,5.70
2017-12-13T10:28:27.192Z,7.30
2017-12-13T10:29:27.199Z,8.50
2017-12-13T10:30:27.209Z,5.70
2017-12-13T10:31:27.219Z,8.20
2017-12-13T10:32:27.231Z,6.10
2017-12-13T10:33:27.245Z,7.00
2017-12-13T10:34:27.256Z,8.10
2017-12-13T10:35:27.265Z,7.10
2017-12-13T10:36:27.277Z,7.70
2017-12-13T10:37:27.289Z,6.90
2017-12-13T10:38:27.301Z,10.70
2017-12-13T10:39:27.314Z,6.20
2017-12-13T10:40:27.326Z,5.70
2017-12-13T10:41:27.336Z,5.50
2017-12-13T10:42:27.354Z,7.20
2017-12-13T10:43:27.357Z,5.60
2017-12-13T10:44:27.368Z,6.90
2017-12-13T10:45:27.382Z,6.90
2017-12-13T10:46:27.392Z,5.70
2017-12-13T10:47:27.422Z,5.80
2017-12-13T10:48:27.436Z,4.90
2017-12-13T10:49:27.436Z,5.50
2017-12-13T10:50:27.439Z,4.10
2017-12-13T10:51:27.471Z,4.00
2017-12-13T10:52:27.458Z,7.50
2017-12-13T10:53:27.470Z,7.40
2017-12-13T10:54:27.493Z,5.20
2017-12-13T10:55:27.492Z,5.00
2017-12-13T10:56:27.504Z,7.30
2017-12-13T10:57:27.520Z,9.00
2017-12-13T10:58:27.529Z,6.00
2017-12-13T10:59:27.539Z,5.10
2017-12-13T11:00:27.555Z,7.30
2017-12-13T11:01:27.563Z,8.10
2017-12-13T11:02:27.572Z,7.30
2017-12-13T11:03:27.590Z,5.30
2017-12-13T11:04:27.602Z,8.50
2017-12-13T11:05:27.607Z,6.10
2017-12-13T11:06:27.617Z,7.50
2017-12-13T11:07:27.636Z,7.90
2017-12-13T11:08:27.640Z,6.60
2017-12-13T11:09:27.650Z,6.00
2017-12-13T11:10:27.663Z,5.70
2017-12-13T11:11:27.671Z,7.80
2017-12-13T11:12:27.689Z,6.00
2017-12-13T11:13:27.695Z,5.20
2017-12-13T11:14:27.707Z,4.40
2017-12-13T11:15:27.720Z,7.80
2017-12-13T11:16:27.829Z,6.20
2017-12-13T11:17:27.741Z,6.10
2017-12-13T11:18:27.756Z,7.50
2017-12-13T11:19:27.762Z,5.80
2017-12-13T11:20:27.787Z,5.20
2017-12-13T11:21:27.785Z,4.70
2017-12-13T11:22:27.799Z,2.80
2017-12-13T11:23:27.808Z,4.00
2017-12-13T11:24:27.821Z,5.90
2017-12-13T11:25:27.835Z,4.60
2017-12-13T11:26:27.846Z,3.50
2017-12-13T11:27:27.853Z,5.60
2017-12-13T11:28:27.864Z,3.70
2017-12-13T11:29:27.875Z,3.00
2017-12-13T11:30:27.906Z,3.80
2017-12-13T11:31:27.898Z,6.80
2017-12-13T11:32:27.912Z,4.60
2017-12-13T11:33:27.921Z,3.90
2017-12-13T11:34:27.934Z,4.80
2017-12-13T11:35:27.986Z,3.50
2017-12-13T11:36:27.969Z,6.10
2017-12-13T11:37:27.965Z,4.90
2017-12-13T11:38:27.992Z,4.70
2017-12-13T11:39:27.993Z,3.40
2017-12-13T11:40:28.009Z,5.10
2017-12-13T11:41:28.009Z,2.60
2017-12-13T11:42:28.019Z,3.50
2017-12-13T11:43:28.032Z,3.90
2017-12-13T11:44:28.043Z,3.90
2017-12-13T11:45:28.062Z,2.80
2017-12-13T11:46:28.065Z,4.00
2017-12-13T11:47:28.085Z,3.40
2017-12-13T11:48:28.089Z,3.00
2017-12-13T11:49:28.121Z,3.40
2017-12-13T11:50:28.110Z,2.90
2017-12-13T11:51:31.434Z,3.90
2017-12-13T11:52:28.374Z,5.70
2017-12-13T11:53:28.149Z,3.70
2017-12-13T11:54:28.159Z,4.70
2017-12-13T11:55:28.167Z,3.20
2017-12-13T11:56:28.178Z,3.40
2017-12-13T11:57:28.191Z,3.20
2017-12-13T11:58:28.202Z,2.80
2017-12-13T11:59:28.262Z,3.70
2017-12-13T12:00:28.228Z,2.80
2017-12-13T12:01:28.236Z,3.80
2017-12-13T12:02:28.246Z,3.30
2017-12-13T12:03:28.262Z,3.20
2017-12-13T12:04:28.270Z,4.00
2017-12-13T12:05:28.280Z,4.40
2017-12-13T12:06:28.291Z,2.60
2017-12-13T12:07:28.302Z,4.90
2017-12-13T12:08:28.316Z,3.80
2017-12-13T12:09:28.338Z,4.50
2017-12-13T12:10:28.349Z,3.90
2017-12-13T12:11:28.353Z,2.80
2017-12-13T12:12:28.358Z,3.70
2017-12-13T12:13:28.377Z,3.00
2017-12-13T12:14:28.388Z,3.90
2017-12-13T12:15:28.391Z,3.90
2017-12-13T12:16:28.404Z,2.40
2017-12-13T12:17:28.415Z,2.50
2017-12-13T12:18:28.447Z,2.20
2017-12-13T12:19:28.437Z,2.60
2017-12-13T12:20:28.451Z,2.70
2017-12-13T12:21:28.463Z,2.50
2017-12-13T12:22:28.471Z,3.80
2017-12-13T12:23:28.481Z,2.60
2017-12-13T12:24:28.494Z,2.10
2017-12-13T12:25:28.505Z,3.60
2017-12-13T12:26:28.514Z,3.40
2017-12-13T12:27:28.524Z,2.70
2017-12-13T12:28:28.540Z,5.00
2017-12-13T12:29:28.550Z,2.40
2017-12-13T12:30:28.564Z,3.40
2017-12-13T12:31:28.573Z,3.70
2017-12-13T12:32:28.582Z,3.00
2017-12-13T12:33:28.595Z,4.10
2017-12-13T12:34:28.613Z,3.20
2017-12-13T12:35:28.619Z,2.70
2017-12-13T12:36:28.627Z,2.10
2017-12-13T12:37:28.639Z,2.70
2017-12-13T12:38:28.648Z,2.50
2017-12-13T12:39:28.663Z,2.70
2017-12-13T12:40:28.670Z,3.60
2017-12-13T12:41:28.682Z,2.00
2017-12-13T12:42:28.692Z,2.80
2017-12-13T12:43:28.712Z,2.70
2017-12-13T12:44:28.732Z,2.50
2017-12-13T12:45:28.727Z,3.00
2017-12-13T12:46:28.739Z,2.30
2017-12-13T12:47:28.765Z,2.60
2017-12-13T12:48:28.762Z,3.00
2017-12-13T12:49:28.784Z,2.00
2017-12-13T12:50:28.786Z,2.90
2017-12-13T12:51:28.802Z,3.40
2017-12-13T12:52:28.805Z,2.50
2017-12-13T12:53:28.816Z,1.50
2017-12-13T12:54:28.826Z,2.50
2017-12-13T12:55:28.844Z,2.00
2017-12-13T12:56:28.891Z,3.00
2017-12-13T12:57:28.864Z,2.70
2017-12-13T12:58:28.867Z,2.10
2017-12-13T12:59:28.882Z,3.70
2017-12-13T13:00:28.896Z,4.80
2017-12-13T13:01:28.902Z,1.60
2017-12-13T13:02:28.926Z,3.50
2017-12-13T13:03:28.924Z,6.00
2017-12-13T13:04:28.936Z,5.00
2017-12-13T13:05:28.948Z,2.50